createdAt,value
2022-10-05T04:04:37.469Z,4.00
2022-10-05T04:07:09.590Z,3.67
2022-10-05T04:09:47.776Z,4.50
2022-10-05T04:12:29.203Z,3.70
2022-10-05T04:15:20.202Z,3.95
2022-10-05T04:17:51.769Z,3.65
2022-10-05T04:20:27.320Z,4.15
2022-10-05T04:23:07.839Z,4.00
2022-10-05T04:25:45.340Z,4.22
2022-10-05T04:28:14.727Z,4.10
2022-10-05T04:30:44.130Z,3.45
2022-10-05T04:33:13.621Z,3.63
2022-10-05T04:36:17.576Z,3.90
2022-10-05T04:39:01.008Z,4.25
2022-10-05T04:41:54.763Z,4.45
2022-10-05T04:44:39.732Z,4.22
2022-10-05T04:47:31.170Z,4.10
2022-10-05T04:50:03.864Z,4.18
2022-10-05T04:53:11.365Z,3.75
2022-10-05T04:56:01.197Z,4.03
2022-10-05T04:58:53.728Z,3.78
2022-10-05T05:01:47.777Z,3.83
2022-10-05T05:04:40.046Z,3.70
2022-10-05T05:07:15.649Z,3.78
2022-10-05T05:10:06.619Z,3.83
2022-10-05T05:12:57.698Z,3.70
2022-10-05T05:15:41.040Z,3.63
2022-10-05T05:18:37.039Z,3.75
2022-10-05T05:21:12.636Z,3.47
2022-10-05T05:24:02.465Z,3.50
2022-10-05T05:26:57.329Z,3.00
2022-10-05T05:30:02.012Z,3.42
2022-10-05T05:32:47.032Z,3.50
2022-10-05T05:35:28.329Z,3.20
2022-10-05T05:38:28.227Z,3.55
2022-10-05T05:41:11.778Z,3.38
2022-10-05T05:44:23.168Z,3.75
2022-10-05T05:47:08.804Z,3.60
2022-10-05T05:52:20.159Z,3.30
2022-10-05T05:55:06.262Z,3.65
2022-10-05T05:57:41.133Z,3.08
2022-10-05T06:00:20.549Z,3.45
2022-10-05T06:03:08.176Z,3.40
2022-10-05T06:05:42.915Z,2.95
2022-10-05T06:08:19.950Z,3.13
2022-10-05T06:10:52.997Z,2.88
2022-10-05T06:13:26.591Z,3.10
2022-10-05T06:16:03.963Z,3.17
2022-10-05T06:18:33.141Z,3.30
2022-10-05T06:21:06.801Z,3.38
2022-10-05T06:23:40.110Z,2.95
2022-10-05T06:26:22.323Z,2.90
2022-10-05T06:29:05.680Z,2.72
2022-10-05T06:31:43.011Z,2.70
2022-10-05T06:34:24.647Z,2.75
2022-10-05T06:36:56.572Z,2.97
2022-10-05T06:39:22.965Z,3.10
2022-10-05T06:42:01.802Z,3.08
2022-10-05T06:44:43.718Z,2.80
2022-10-05T06:47:33.819Z,2.80
2022-10-05T06:50:09.126Z,2.72
2022-10-05T06:52:57.926Z,2.47
2022-10-05T06:55:30.733Z,2.58
2022-10-05T06:58:18.914Z,2.70
2022-10-05T07:01:37.305Z,2.50
2022-10-05T07:04:18.857Z,2.65
2022-10-05T07:06:53.244Z,2.60
2022-10-05T07:10:05.308Z,2.17
2022-10-05T07:12:50.052Z,2.47
2022-10-05T07:15:34.723Z,2.58
2022-10-05T07:18:21.545Z,2.50
2022-10-05T07:21:13.110Z,2.50
2022-10-05T07:23:48.552Z,2.90
2022-10-05T07:28:57.157Z,2.67
2022-10-05T07:31:34.004Z,2.35
2022-10-05T07:34:09.675Z,2.58
2022-10-05T07:37:00.232Z,2.33
2022-10-05T07:40:00.570Z,2.70
2022-10-05T07:42:53.413Z,2.50
2022-10-05T07:45:19.833Z,2.30
2022-10-05T07:47:59.038Z,2.47
2022-10-05T07:50:36.759Z,2.58
2022-10-05T07:53:11.011Z,2.58
2022-10-05T07:55:51.481Z,2.80
2022-10-05T07:58:31.331Z,2.50
2022-10-05T08:01:19.610Z,2.50
2022-10-05T08:04:23.379Z,2.30
2022-10-05T08:06:57.165Z,2.50
2022-10-05T08:09:38.380Z,2.35
2022-10-05T08:12:20.513Z,2.00
2022-10-05T08:14:56.019Z,2.05
2022-10-05T08:17:31.976Z,2.50
2022-10-05T08:20:36.056Z,2.00
2022-10-05T08:23:16.025Z,2.05
2022-10-05T08:25:54.765Z,2.35
2022-10-05T08:28:28.511Z,2.20
2022-10-05T08:31:29.913Z,2.28
2022-10-05T08:34:20.069Z,2.10
2022-10-05T08:37:13.752Z,2.20
2022-10-05T08:39:56.235Z,2.03
2022-10-05T08:42:59.854Z,2.13
2022-10-05T08:45:54.802Z,2.10
2022-10-05T08:48:38.540Z,1.90
2022-10-05T08:51:40.175Z,1.95
2022-10-05T08:54:18.931Z,2.00
2022-10-05T08:57:13.324Z,2.00
2022-10-05T08:59:51.755Z,2.10
2022-10-05T09:02:49.423Z,2.15
2022-10-05T09:05:34.663Z,1.92
2022-10-05T09:08:12.906Z,1.50
2022-10-05T09:11:03.797Z,1.92
2022-10-05T09:13:51.571Z,1.80
2022-10-05T09:16:27.346Z,1.80
2022-10-05T09:19:00.616Z,1.80
2022-10-05T09:21:43.755Z,1.38
2022-10-05T09:24:13.340Z,1.70
2022-10-05T09:27:19.058Z,1.90
2022-10-05T09:30:00.735Z,1.80
2022-10-05T09:32:36.352Z,1.80
2022-10-05T09:35:30.314Z,1.98
2022-10-05T09:38:09.196Z,1.40
2022-10-05T09:41:30.049Z,1.60
2022-10-05T09:44:24.168Z,1.70
2022-10-05T09:46:53.438Z,1.45
2022-10-05T09:49:32.992Z,1.60
2022-10-05T09:52:19.217Z,1.88
2022-10-05T09:55:06.542Z,2.00
2022-10-05T09:57:45.278Z,1.40
2022-10-05T10:00:29.796Z,1.88
2022-10-05T10:02:59.437Z,1.50
2022-10-05T10:06:25.912Z,1.45
2022-10-05T10:09:36.503Z,1.77
2022-10-05T10:12:23.326Z,1.60
2022-10-05T10:15:18.557Z,1.50
2022-10-05T10:18:09.796Z,1.60
2022-10-05T10:21:01.971Z,1.48
2022-10-05T10:23:46.734Z,1.65
2022-10-05T10:26:25.298Z,1.50
2022-10-05T10:29:04.996Z,1.60
2022-10-05T10:31:43.723Z,1.45
2022-10-05T10:34:42.660Z,1.67
2022-10-05T10:37:32.484Z,1.23
2022-10-05T10:40:21.324Z,1.48
2022-10-05T10:43:16.526Z,1.52
2022-10-05T10:45:55.079Z,1.38
2022-10-05T10:48:30.926Z,1.42
2022-10-05T10:51:03.834Z,1.42
2022-10-05T10:53:33.267Z,1.58
2022-10-05T10:56:12.265Z,1.10
2022-10-05T10:58:44.954Z,1.38
2022-10-05T11:01:34.434Z,1.58
2022-10-05T11:04:06.833Z,1.65
2022-10-05T11:06:54.965Z,1.58
2022-10-05T11:09:28.159Z,1.10
2022-10-05T11:12:33.510Z,1.20
2022-10-05T11:15:38.772Z,1.45
2022-10-05T11:18:27.868Z,1.40
2022-10-05T11:20:56.043Z,1.50
2022-10-05T11:24:00.304Z,1.20
2022-10-05T11:26:46.630Z,1.30
2022-10-05T11:29:29.138Z,1.55
2022-10-05T11:32:13.911Z,1.40
2022-10-05T11:35:05.167Z,1.40
2022-10-05T11:37:56.046Z,1.48
2022-10-05T11:40:44.527Z,1.30
2022-10-05T11:43:23.107Z,1.38
2022-10-05T11:46:17.018Z,1.13
2022-10-05T11:49:35.710Z,1.30
2022-10-05T11:52:10.772Z,1.35
2022-10-05T11:55:15.924Z,1.10
2022-10-05T11:57:59.051Z,1.13
2022-10-05T12:00:33.399Z,1.17
2022-10-05T12:03:42.254Z,1.20
2022-10-05T12:06:11.877Z,1.50
2022-10-05T12:09:08.939Z,1.25
2022-10-05T12:12:17.095Z,1.27
2022-10-05T12:15:12.549Z,1.35
2022-10-05T12:17:51.075Z,1.30
2022-10-05T12:20:19.904Z,1.25
2022-10-05T12:23:06.152Z,1.40
2022-10-05T12:26:00.290Z,1.10
2022-10-05T12:28:47.328Z,1.25
2022-10-05T12:31:25.736Z,1.42
2022-10-05T12:34:18.683Z,1.25
2022-10-05T12:37:04.430Z,1.30
2022-10-05T12:39:43.530Z,1.50
2022-10-05T12:42:30.289Z,1.40
2022-10-05T12:45:09.582Z,1.38
2022-10-05T12:48:07.052Z,1.48
2022-10-05T12:50:47.281Z,1.30
2022-10-05T12:53:40.103Z,1.52
2022-10-05T12:56:21.591Z,1.70
2022-10-05T12:59:09.281Z,1.55
2022-10-05T13:02:01.706Z,1.35
2022-10-05T13:04:47.089Z,1.83
2022-10-05T13:07:40.981Z,1.40
2022-10-05T13:10:20.588Z,1.38
2022-10-05T13:13:08.106Z,1.50
2022-10-05T13:15:47.013Z,1.48
2022-10-05T13:18:16.524Z,1.33
2022-10-05T13:20:48.210Z,1.25
2022-10-05T13:23:31.324Z,1.30
2022-10-05T13:26:13.193Z,1.40
2022-10-05T13:28:58.173Z,1.25
2022-10-05T13:31:34.734Z,1.40
2022-10-05T13:34:21.220Z,1.50
2022-10-05T13:37:03.445Z,1.48
2022-10-05T13:40:17.108Z,1.30
2022-10-05T13:43:01.914Z,1.42
2022-10-05T13:45:39.244Z,1.40
2022-10-05T13:48:24.256Z,1.30
2022-10-05T13:51:26.395Z,1.63
2022-10-05T13:53:59.035Z,1.42
2022-10-05T13:56:39.476Z,1.40
2022-10-05T13:59:19.151Z,1.60
2022-10-05T14:02:08.587Z,1.35
2022-10-05T14:04:58.435Z,1.60
2022-10-05T14:07:39.343Z,1.48
2022-10-05T14:10:14.575Z,1.38
2022-10-05T14:12:43.592Z,1.70
2022-10-05T14:15:29.586Z,1.40
2022-10-05T14:17:56.380Z,1.40
2022-10-05T14:20:31.512Z,1.52
2022-10-05T14:23:02.098Z,1.73
2022-10-05T14:25:30.680Z,1.52
2022-10-05T14:28:24.104Z,1.40
2022-10-05T14:30:59.987Z,1.30
2022-10-05T14:33:36.278Z,1.58
2022-10-05T14:36:03.344Z,1.42
2022-10-05T14:38:35.232Z,1.70
2022-10-05T14:41:06.222Z,1.58
2022-10-05T14:43:34.149Z,1.50
2022-10-05T14:46:27.949Z,1.40
2022-10-05T14:49:26.356Z,1.42
2022-10-05T14:51:54.782Z,1.40
2022-10-05T14:54:21.215Z,1.50
2022-10-05T14:57:06.381Z,1.50
2022-10-05T14:59:40.203Z,1.30
2022-10-05T15:02:28.742Z,1.35
2022-10-05T15:04:58.137Z,1.65
2022-10-05T15:07:30.765Z,1.58
2022-10-05T15:10:26.979Z,1.60
2022-10-05T15:12:58.337Z,1.50
2022-10-05T15:15:37.063Z,1.63
2022-10-05T15:18:15.854Z,1.60
2022-10-05T15:20:56.168Z,1.30
2022-10-05T15:23:52.930Z,1.30
2022-10-05T15:26:42.513Z,1.33
2022-10-05T15:29:14.756Z,1.52
2022-10-05T15:32:19.088Z,1.55
2022-10-05T15:35:04.973Z,1.30
2022-10-05T15:37:53.421Z,1.40
2022-10-05T15:40:46.378Z,1.38
2022-10-05T15:43:47.393Z,1.80
2022-10-05T15:46:41.271Z,1.42
2022-10-05T15:49:49.009Z,1.50
2022-10-05T15:52:18.479Z,1.90
2022-10-05T15:55:09.723Z,1.80
2022-10-05T15:57:48.132Z,1.60
2022-10-05T16:00:17.387Z,1.63
2022-10-05T16:02:46.918Z,1.63
2022-10-05T16:05:52.363Z,1.50
2022-10-05T16:08:50.919Z,1.63
2022-10-05T16:11:43.998Z,1.70
2022-10-05T16:14:28.628Z,1.95
2022-10-05T16:17:25.138Z,1.60
2022-10-05T16:20:14.666Z,1.60
2022-10-05T16:22:59.620Z,1.70
2022-10-05T16:25:34.230Z,1.92
2022-10-05T16:28:06.712Z,1.88
2022-10-05T16:31:02.648Z,1.80
2022-10-05T16:33:54.248Z,1.80
2022-10-05T16:36:44.481Z,1.92
2022-10-05T16:39:32.943Z,2.20
2022-10-05T16:42:11.835Z,2.20
2022-10-05T16:44:58.727Z,1.92
2022-10-05T16:47:52.860Z,2.50
2022-10-05T16:50:37.003Z,2.88
2022-10-05T16:53:18.208Z,2.60
2022-10-05T16:55:50.289Z,1.90
2022-10-05T16:58:28.323Z,2.20
2022-10-05T17:01:23.933Z,1.80
2022-10-05T17:04:12.195Z,1.98
2022-10-05T17:06:47.982Z,2.13
2022-10-05T17:09:17.192Z,2.47
2022-10-05T17:11:46.680Z,2.20
2022-10-05T17:14:32.081Z,2.10
2022-10-05T17:17:32.896Z,2.15
2022-10-05T17:20:43.050Z,2.05
2022-10-05T17:23:50.222Z,2.30
2022-10-05T17:26:22.774Z,2.53
2022-10-05T17:28:52.348Z,1.85
2022-10-05T17:31:21.944Z,2.22
2022-10-05T17:34:00.391Z,1.92
2022-10-05T17:36:49.459Z,2.10
2022-10-05T17:39:18.677Z,2.25
2022-10-05T17:41:46.659Z,1.98
2022-10-05T17:44:24.373Z,2.30
2022-10-05T17:46:52.253Z,2.50
2022-10-05T17:49:26.832Z,2.13
2022-10-05T17:52:11.994Z,2.10
2022-10-05T17:55:03.096Z,2.60
2022-10-05T17:57:31.288Z,2.40
2022-10-05T18:00:02.868Z,2.15
2022-10-05T18:02:36.366Z,2.38
2022-10-05T18:05:04.116Z,2.20
2022-10-05T18:07:32.142Z,2.30
2022-10-05T18:10:20.070Z,2.53
2022-10-05T18:12:51.097Z,2.45
2022-10-05T18:15:23.645Z,2.33
2022-10-05T18:17:57.289Z,2.05
2022-10-05T18:20:30.756Z,2.00
2022-10-05T18:23:03.186Z,2.03
2022-10-05T18:25:45.110Z,1.90
2022-10-05T18:28:39.291Z,2.03
2022-10-05T18:31:30.941Z,1.80
2022-10-05T18:34:09.489Z,1.92
2022-10-05T18:36:48.263Z,1.95
2022-10-05T18:40:02.030Z,1.80
2022-10-05T18:42:50.014Z,1.95
2022-10-05T18:45:30.529Z,2.10
2022-10-05T18:48:11.637Z,2.00
2022-10-05T18:50:46.432Z,2.00
2022-10-05T18:53:50.762Z,1.98
2022-10-05T18:56:20.226Z,2.13
2022-10-05T18:58:57.044Z,2.30
2022-10-05T19:01:48.163Z,1.95
2022-10-05T19:04:22.231Z,2.20
2022-10-05T19:07:04.822Z,2.00
2022-10-05T19:09:48.668Z,2.15
2022-10-05T19:12:15.164Z,2.22
2022-10-05T19:15:10.818Z,2.08
2022-10-05T19:17:52.438Z,2.08
2022-10-05T19:20:37.293Z,1.85
2022-10-05T19:23:18.959Z,1.67
2022-10-05T19:25:59.643Z,1.85
2022-10-05T19:28:48.275Z,1.67
2022-10-05T19:31:22.773Z,1.80
2022-10-05T19:34:07.748Z,1.67
2022-10-05T19:36:40.450Z,1.77
2022-10-05T19:39:17.222Z,1.70
2022-10-05T19:42:10.475Z,1.80
2022-10-05T19:44:38.473Z,1.70
2022-10-05T19:47:14.871Z,1.70
2022-10-05T19:49:58.168Z,2.08
2022-10-05T19:52:36.675Z,2.00
2022-10-05T19:55:24.871Z,1.70
2022-10-05T19:57:53.693Z,1.92
2022-10-05T20:00:31.248Z,1.77
2022-10-05T20:03:22.644Z,1.92
2022-10-05T20:05:50.467Z,1.60
2022-10-05T20:08:20.456Z,2.00
2022-10-05T20:11:17.466Z,1.90
2022-10-05T20:14:06.156Z,2.00
2022-10-05T20:16:52.775Z,2.00
2022-10-05T20:19:36.183Z,2.00
2022-10-05T20:22:27.554Z,1.92
2022-10-05T20:24:57.256Z,1.95
2022-10-05T20:27:41.967Z,2.05
2022-10-05T20:30:11.514Z,2.15
2022-10-05T20:32:38.524Z,1.90
2022-10-05T20:35:06.834Z,2.03
2022-10-05T20:37:33.376Z,1.92
2022-10-05T20:40:00.116Z,2.15
2022-10-05T20:42:26.918Z,2.53
2022-10-05T20:44:56.900Z,2.30
2022-10-05T20:47:25.189Z,2.17
2022-10-05T20:49:54.434Z,1.90
2022-10-05T20:52:22.246Z,2.28
2022-10-05T20:54:59.279Z,2.58
2022-10-05T20:57:26.680Z,2.10
2022-10-05T20:59:53.556Z,2.35
2022-10-05T21:02:20.301Z,2.47
2022-10-05T21:04:50.098Z,2.20
2022-10-05T21:07:18.682Z,2.53
2022-10-05T21:09:46.605Z,2.40
2022-10-05T21:12:13.916Z,2.30
2022-10-05T21:14:40.637Z,2.40
2022-10-05T21:17:07.434Z,2.50
2022-10-05T21:19:38.401Z,2.72
2022-10-05T21:22:09.897Z,2.53
2022-10-05T21:24:38.209Z,2.90
2022-10-05T21:27:05.584Z,2.60
2022-10-05T21:29:34.171Z,2.60
2022-10-05T21:32:01.010Z,2.42
2022-10-05T21:34:28.704Z,2.50
2022-10-05T21:36:55.228Z,2.70
2022-10-05T21:39:21.976Z,2.67
2022-10-05T21:41:49.762Z,1.42
2022-10-05T21:44:16.867Z,1.33
2022-10-05T21:46:43.896Z,1.50
2022-10-05T21:49:10.593Z,1.17
2022-10-05T21:51:38.158Z,1.20
2022-10-05T21:54:14.099Z,0.82
2022-10-05T21:56:45.899Z,1.02
2022-10-05T21:59:15.432Z,0.85
2022-10-05T22:01:42.157Z,0.90
2022-10-05T22:04:08.706Z,0.80
2022-10-05T22:06:35.918Z,0.80
2022-10-05T22:09:03.862Z,0.88
2022-10-05T22:11:31.638Z,0.60
2022-10-05T22:14:02.704Z,0.60
2022-10-05T22:16:32.106Z,0.52
2022-10-05T22:19:01.549Z,0.52
2022-10-05T22:21:28.042Z,0.65
2022-10-05T22:23:54.586Z,0.90
2022-10-05T22:26:22.668Z,0.63
2022-10-05T22:28:52.372Z,0.82
2022-10-05T22:31:19.011Z,0.75
2022-10-05T22:33:45.540Z,0.80
2022-10-05T22:36:12.159Z,0.80
2022-10-05T22:38:38.662Z,0.60
2022-10-05T22:41:10.112Z,0.80
2022-10-05T22:43:36.921Z,0.95
2022-10-05T22:46:13.371Z,0.60
2022-10-05T22:48:40.163Z,0.70
2022-10-05T22:51:07.553Z,0.88
2022-10-05T22:53:34.935Z,0.70
2022-10-05T22:56:12.791Z,0.88
2022-10-05T22:58:40.754Z,0.90
